Layland, West Virginia
Current Conditions -  °F | °C
As of 9:51 PM on Sunday 21 Dec 2014 (Local Time) from KBKW Reporting Station
Clear Clear  
Wind Chill: 28°   Ceiling: Unl
Heat Index: 36°   Visibility: 10mi
Dew Point: 29°   Wind: 12mph
Humidity: 76%   Direction: 140°SE
Pressure: 30.11"   Gusts: 18mph
Location:  37.9°N, 80.99°W
Report Text: KBKW 220251Z AUTO 14010G16KT 10SM CLR 02/M02 A3011 RMK AO2 SLP220 T00221017 58003
Loading
Personal Weather Stations






























Interactive Weather Map New forecast layout! Learn more

10-Day Weather Forecast

Advertisements
Track Severe Weather on mobile